FMEP/ZSE METAR and TAF weather

Enter ICAO airport designator
Station Type Date Time Source
FMEP METAR 2018/01/16 09:00 UTC NOAA

FMEP 160900Z AUTO 11018KT 8000 BKN020/// OVC027/// ///CB 26/23 Q1010 BECMG 14020G30KT


Station Type Date Time Source
FMEP Decoded METAR 2018/01/16 09:00 UTC NOAA

Saint-Pierre, Reunion (FMEP) 21-20S 055-29E 53M
Jan 16, 2018 - 04:00 AM EST / 2018.01.16 0900 UTC
Wind: from the ESE (110 degrees) at 21 MPH (18 KT):0
Visibility: 4 mile(s):0
Sky conditions: overcast
Weather: Cumulonimbus clouds observed
Temperature: 78 F (26 C)
Dew Point: 73 F (23 C)
Relative Humidity: 83%
Pressure (altimeter): 29.83 in. Hg (1010 hPa)
ob: FMEP 160900Z AUTO 11018KT 8000 BKN020/// OVC027/// ///CB 26/23 Q1010 BECMG 14020G30KT
cycle: 9

Station Type Date Time Source
FMEP TAF 2018/01/04 12:12 UTC NOAA

TAF FMEP 041208Z 0412/0421 28008KT 9999 FEW025 BKN060 PROB40
TEMPO 0412/0421 4000 SHRA FEW025 SCT025TCU PROB30
TEMPO 0412/0421 SCT020CB


Example: see airport list